Limestone, PA

10:50 PM EST on February 06, 2016 (GMT -0500)
University Manor, Clarion, PA | | Change Station
CLOSE
Current Station
Personal Weather Station
Location: Clarion, PA
Elevation: 1512 ft
Nearby Weather Stations

Elev 1512 ft 41.20 °N, 79.37 °W | Updated 57 seconds ago

Partly Cloudy
Partly Cloudy
31.0 °F
Feels Like 31 °F
N
1.0
Wind Variable Wind from South
Gusts 9.0 mph

Today
High -- | Low -- °F
--% Chance of Precip.
Yesterday
High -- | Low -- °F
Precip. -- in
Pressure 30.22 in
Visibility 10.0 miles
Clouds Clear
Windchill 31 °F
Dew Point 18 °F
Humidity 59%
Rainfall 0.00 in
Snow Depth Not available.
7:23 AM 5:39 PM
Waning Crescent, 3% visible
METAR KDUJ 070253Z AUTO 23006KT 10SM CLR M02/M09 A3016 RMK AO2 SLP232 T10171094 58001
Pressure 30.22 in
Visibility 10.0 miles
Clouds Clear
Windchill 31 °F
Dew Point 18 °F
Humidity 59%
Rainfall 0.00 in
Snow Depth Not available.
7:23 AM 5:39 PM
Waning Crescent, 3% visible
METAR KDUJ 070253Z AUTO 23006KT 10SM CLR M02/M09 A3016 RMK AO2 SLP232 T10171094 58001

10-Day Weather Forecast

Almanac

Astronomy

Feb. 06, 2016 Rise Set
Actual Time
Civil Twilight
Nautical Twilight
Astronomical Twilight
Moon
Length of Visible Light
Length of Day
Tomorrow will be .
, % of the Moon is Illuminated

Today's Extremes

State Highs State Lows

Community

WunderPhotos

Upload Photos

1,891,154 photos uploaded!

WunderBlog® & News

Nearby

Air Quality

  Air Quality AQ Index Pollutant
Not available.

Snow Depth

Station Depth Elevation

Earthquake Activity

City Distance Mag. Time & Date
Minimum magnitude displayed is 2.5.

Coastal Water Temperatures

Place Temperature

Stations

Nearby Weather Stations

Station Location Temp. Windchill Dew Point Humidity Wind Precip. Elev Updated Type
                   

Watches & Warnings

There are currently no watches in effect.